createdAt,value
2022-08-17T00:00:34.570Z,79.27
2022-08-17T00:05:43.768Z,80.76
2022-08-17T00:10:46.691Z,80.38
2022-08-17T00:15:48.611Z,81.46
2022-08-17T00:20:50.403Z,81.17
2022-08-17T00:25:53.456Z,80.54
2022-08-17T00:30:55.349Z,79.73
2022-08-17T00:35:58.567Z,81.24
2022-08-17T00:41:13.153Z,81.09
2022-08-17T00:46:16.857Z,83.01
2022-08-17T00:51:41.887Z,83.23
2022-08-17T00:56:47.961Z,85.04
2022-08-17T01:01:50.672Z,84.29
2022-08-17T01:06:53.264Z,84.34
2022-08-17T01:11:54.953Z,81.89
2022-08-17T01:16:56.698Z,81.20
2022-08-17T01:22:12.967Z,81.61
2022-08-17T01:27:16.125Z,81.69
2022-08-17T01:32:20.267Z,82.44
2022-08-17T01:37:35.500Z,83.23
2022-08-17T01:42:44.640Z,84.50
2022-08-17T01:47:46.420Z,85.91
2022-08-17T01:52:51.727Z,86.30
2022-08-17T01:57:53.760Z,87.94
2022-08-17T02:02:55.474Z,87.76
2022-08-17T02:08:00.448Z,88.08
2022-08-17T02:13:04.504Z,87.46
2022-08-17T02:18:06.779Z,88.90
2022-08-17T02:23:10.642Z,89.50
2022-08-17T02:28:12.453Z,90.16
2022-08-17T02:33:14.549Z,90.95
2022-08-17T02:38:17.463Z,90.39
2022-08-17T02:43:20.782Z,91.14
2022-08-17T02:48:30.627Z,92.73
2022-08-17T02:53:36.120Z,91.79
2022-08-17T02:58:38.256Z,91.01
2022-08-17T03:03:40.884Z,90.30
2022-08-17T03:08:42.548Z,91.62
2022-08-17T03:13:44.219Z,90.57
2022-08-17T03:18:46.073Z,90.69
2022-08-17T03:23:47.833Z,90.29
2022-08-17T03:28:56.229Z,89.91
2022-08-17T03:33:57.936Z,89.90
2022-08-17T03:39:00.516Z,91.01
2022-08-17T03:44:02.496Z,91.07
2022-08-17T03:49:25.048Z,90.34
2022-08-17T03:54:45.204Z,91.04
2022-08-17T03:59:47.666Z,92.48
2022-08-17T04:04:53.895Z,91.66
2022-08-17T04:09:55.752Z,92.25
2022-08-17T04:14:57.452Z,92.67
2022-08-17T04:19:59.107Z,93.52
2022-08-17T04:25:05.392Z,93.06
2022-08-17T04:30:07.724Z,90.61
2022-08-17T04:35:09.662Z,89.97
2022-08-17T04:40:30.660Z,88.34
2022-08-17T04:45:32.740Z,88.02
2022-08-17T04:50:36.522Z,88.14
2022-08-17T04:55:41.943Z,88.42
2022-08-17T05:00:44.039Z,87.47
2022-08-17T05:05:51.276Z,87.09
2022-08-17T05:10:53.008Z,85.25
2022-08-17T05:16:02.203Z,83.23
2022-08-17T05:21:04.470Z,81.96
2022-08-17T05:26:07.892Z,81.68
2022-08-17T05:31:14.071Z,81.77
2022-08-17T05:36:41.657Z,81.84
2022-08-17T05:41:37.743Z,80.87
2022-08-17T05:46:43.540Z,78.62
2022-08-17T05:51:51.132Z,77.47
2022-08-17T05:57:02.657Z,77.16
2022-08-17T06:02:18.909Z,76.39
2022-08-17T06:07:22.831Z,74.64
2022-08-17T06:12:24.440Z,72.34
2022-08-17T06:17:28.307Z,71.65
2022-08-17T06:22:35.894Z,65.31
2022-08-17T06:27:42.922Z,61.77
2022-08-17T06:32:48.163Z,59.43
2022-08-17T06:38:17.311Z,58.53
2022-08-17T06:43:46.167Z,59.49
2022-08-17T06:49:07.506Z,60.31
2022-08-17T06:54:25.472Z,56.63
2022-08-17T06:59:55.279Z,53.43
2022-08-17T07:05:01.801Z,53.86
2022-08-17T07:10:03.792Z,54.24
2022-08-17T07:15:16.666Z,54.43
2022-08-17T07:20:22.498Z,52.16
2022-08-17T07:25:25.103Z,52.84
2022-08-17T07:30:49.872Z,50.37
2022-08-17T07:35:52.940Z,45.55
2022-08-17T07:41:04.923Z,42.51
2022-08-17T07:46:34.261Z,38.79
2022-08-17T07:51:40.902Z,38.90
2022-08-17T07:56:50.396Z,35.79
2022-08-17T08:01:57.407Z,34.37
2022-08-17T08:07:11.303Z,33.73
2022-08-17T08:12:24.772Z,34.00
2022-08-17T08:17:44.840Z,31.75
2022-08-17T08:22:56.285Z,31.10
2022-08-17T08:28:30.027Z,30.52
2022-08-17T08:33:57.529Z,30.79
2022-08-17T08:39:08.917Z,31.51
2022-08-17T08:44:59.719Z,31.99
2022-08-17T08:50:05.390Z,31.93
2022-08-17T08:55:32.349Z,29.86
2022-08-17T09:00:40.623Z,29.18
2022-08-17T09:06:03.742Z,33.08
2022-08-17T09:11:17.375Z,33.39
2022-08-17T09:16:37.925Z,30.95
2022-08-17T09:21:54.553Z,31.01
2022-08-17T09:27:13.505Z,31.94
2022-08-17T09:32:24.807Z,29.69
2022-08-17T09:38:03.935Z,31.04
2022-08-17T09:43:17.550Z,32.14
2022-08-17T09:53:37.386Z,29.91
2022-08-17T09:59:03.896Z,33.76
2022-08-17T10:04:29.497Z,34.49
2022-08-17T10:09:59.365Z,33.30
2022-08-17T10:15:34.668Z,30.94
2022-08-17T10:20:48.449Z,33.89
2022-08-17T10:26:14.524Z,34.53
2022-08-17T10:31:42.686Z,30.80
2022-08-17T10:36:59.149Z,30.97
2022-08-17T10:42:32.172Z,36.61
2022-08-17T10:48:06.076Z,34.00
2022-08-17T10:53:08.420Z,29.50
2022-08-17T10:58:22.088Z,32.57
2022-08-17T11:03:25.588Z,38.05
2022-08-17T11:08:57.553Z,38.81
2022-08-17T11:14:17.593Z,39.68
2022-08-17T11:19:44.779Z,36.14
2022-08-17T11:24:51.467Z,32.17
2022-08-17T11:30:01.820Z,32.85
2022-08-17T11:35:22.281Z,31.42
2022-08-17T11:40:43.183Z,30.38
2022-08-17T11:46:13.664Z,31.36
2022-08-17T11:51:34.199Z,34.91
2022-08-17T11:56:42.517Z,37.85
2022-08-17T12:01:46.987Z,37.10
2022-08-17T12:06:57.015Z,33.32
2022-08-17T12:12:31.371Z,29.91
2022-08-17T12:17:41.183Z,32.17
2022-08-17T12:23:09.651Z,31.89
2022-08-17T12:28:23.873Z,35.02
2022-08-17T12:33:28.775Z,31.52
2022-08-17T12:38:34.750Z,31.33
2022-08-17T12:43:36.566Z,30.57
2022-08-17T12:48:38.256Z,32.28
2022-08-17T12:53:42.434Z,31.30
2022-08-17T12:58:54.475Z,32.80
2022-08-17T13:03:59.789Z,31.72
2022-08-17T13:09:14.779Z,31.82
2022-08-17T13:14:18.634Z,32.22
2022-08-17T13:19:40.038Z,32.94
2022-08-17T13:24:53.281Z,33.34
2022-08-17T13:30:01.442Z,36.40
2022-08-17T13:35:32.835Z,36.17
2022-08-17T13:40:52.238Z,36.39
2022-08-17T13:46:06.939Z,37.90
2022-08-17T13:51:23.505Z,36.42
2022-08-17T13:56:33.374Z,36.02
2022-08-17T14:01:53.585Z,35.52
2022-08-17T14:07:00.601Z,34.79
2022-08-17T14:12:04.735Z,36.24
2022-08-17T14:17:07.908Z,36.60
2022-08-17T14:22:18.265Z,35.10
2022-08-17T14:27:21.143Z,35.58
2022-08-17T14:32:26.722Z,35.25
2022-08-17T14:37:29.961Z,35.83
2022-08-17T14:42:33.553Z,35.72
2022-08-17T14:47:36.976Z,36.17
2022-08-17T14:52:42.367Z,37.54
2022-08-17T14:57:45.062Z,36.42
2022-08-17T15:02:53.841Z,36.90
2022-08-17T15:07:55.864Z,36.76
2022-08-17T15:12:58.009Z,35.98
2022-08-17T15:18:00.034Z,35.83
2022-08-17T15:23:02.237Z,35.08
2022-08-17T15:28:04.187Z,35.82
2022-08-17T15:33:05.848Z,35.57
2022-08-17T15:38:12.091Z,35.44
2022-08-17T15:43:26.453Z,36.74
2022-08-17T15:48:40.822Z,37.02
2022-08-17T15:53:45.489Z,36.34
2022-08-17T15:58:48.585Z,36.46
2022-08-17T16:04:06.809Z,36.56
2022-08-17T16:09:09.218Z,36.56
2022-08-17T16:14:10.852Z,36.79
2022-08-17T16:19:16.295Z,37.51
2022-08-17T16:24:17.962Z,37.55
2022-08-17T16:29:21.444Z,38.43
2022-08-17T16:34:23.285Z,38.58
2022-08-17T16:39:27.498Z,39.51
2022-08-17T16:44:30.696Z,39.90
2022-08-17T16:49:36.902Z,41.75
2022-08-17T16:54:43.763Z,42.35
2022-08-17T16:59:50.348Z,43.67
2022-08-17T17:05:14.495Z,43.83
2022-08-17T17:10:20.273Z,44.31
2022-08-17T17:15:28.307Z,45.16
2022-08-17T17:20:40.500Z,45.39
2022-08-17T17:26:11.629Z,46.41
2022-08-17T17:31:17.840Z,46.75
2022-08-17T17:36:19.461Z,47.50
2022-08-17T17:41:47.302Z,48.62
2022-08-17T17:46:54.513Z,49.29
2022-08-17T17:52:10.055Z,49.72
2022-08-17T17:57:24.625Z,49.77
2022-08-17T18:02:47.418Z,50.63
2022-08-17T18:08:22.013Z,50.83
2022-08-17T18:14:02.256Z,51.80
2022-08-17T18:19:03.892Z,52.27
2022-08-17T18:24:10.579Z,54.47
2022-08-17T18:29:21.260Z,54.90
2022-08-17T18:39:47.117Z,54.43
2022-08-17T18:44:52.995Z,56.04
2022-08-17T18:50:24.082Z,57.29
2022-08-17T18:55:31.440Z,57.50
2022-08-17T19:00:38.409Z,58.67
2022-08-17T19:05:45.118Z,58.97
2022-08-17T19:10:50.558Z,60.44
2022-08-17T19:16:11.937Z,60.96
2022-08-17T19:21:22.913Z,61.40
2022-08-17T19:26:54.199Z,61.35
2022-08-17T19:31:58.635Z,61.85
2022-08-17T19:37:06.977Z,62.36
2022-08-17T19:42:47.337Z,63.07
2022-08-17T19:48:11.699Z,62.77
2022-08-17T19:53:54.181Z,63.77
2022-08-17T19:59:13.314Z,64.22
2022-08-17T20:04:32.792Z,65.63
2022-08-17T20:09:34.644Z,65.09
2022-08-17T20:14:53.567Z,65.60
2022-08-17T20:20:07.584Z,65.45
2022-08-17T20:25:30.998Z,66.11
2022-08-17T20:30:38.045Z,65.58
2022-08-17T20:35:59.770Z,66.60
2022-08-17T20:41:04.476Z,66.85
2022-08-17T20:46:30.268Z,67.43
2022-08-17T20:52:07.763Z,66.71
2022-08-17T20:57:14.185Z,67.60
2022-08-17T21:02:21.855Z,68.11
2022-08-17T21:07:29.408Z,68.13
2022-08-17T21:13:21.889Z,69.23
2022-08-17T21:18:38.797Z,68.72
2022-08-17T21:24:01.144Z,68.93
2022-08-17T21:29:31.358Z,70.16
2022-08-17T21:34:38.939Z,71.81
2022-08-17T21:39:41.401Z,71.88
2022-08-17T21:44:49.079Z,71.67
2022-08-17T21:49:55.136Z,71.77
2022-08-17T21:55:02.349Z,71.73
2022-08-17T22:00:15.490Z,71.69
2022-08-17T22:05:28.263Z,71.23
2022-08-17T22:10:51.500Z,72.80
2022-08-17T22:16:28.770Z,73.10
2022-08-17T22:21:30.866Z,73.90
2022-08-17T22:27:03.598Z,73.87
2022-08-17T22:32:05.320Z,74.12
2022-08-17T22:37:27.565Z,73.08
2022-08-17T22:42:29.455Z,72.88
2022-08-17T22:47:38.907Z,74.13
2022-08-17T22:53:03.276Z,74.49
2022-08-17T22:58:35.803Z,75.43
2022-08-17T23:03:54.461Z,76.13
2022-08-17T23:08:56.693Z,77.19
2022-08-17T23:13:58.355Z,75.18
2022-08-17T23:19:00.013Z,74.21
2022-08-17T23:24:02.267Z,74.85
2022-08-17T23:29:09.030Z,76.42
2022-08-17T23:34:14.040Z,77.17
2022-08-17T23:39:15.678Z,76.36
2022-08-17T23:44:27.727Z,76.08
2022-08-17T23:49:31.768Z,77.12
2022-08-17T23:54:43.618Z,77.61
2022-08-17T23:59:45.917Z,77.58
